createdAt,value
2024-03-27T00:00:53.745Z,51.06
2024-03-27T00:03:42.294Z,51.10
2024-03-27T00:06:11.032Z,50.94
2024-03-27T00:08:39.633Z,51.04
2024-03-27T00:11:08.301Z,50.95
2024-03-27T00:13:36.869Z,51.07
2024-03-27T00:16:05.789Z,51.02
2024-03-27T00:18:34.413Z,51.02
2024-03-27T00:21:02.986Z,51.08
2024-03-27T00:23:31.561Z,50.97
2024-03-27T00:26:00.450Z,50.99
2024-03-27T00:28:28.990Z,50.92
2024-03-27T00:30:57.593Z,50.93
2024-03-27T00:33:26.095Z,50.79
2024-03-27T00:35:58.763Z,50.74
2024-03-27T00:38:27.731Z,50.50
2024-03-27T00:40:56.272Z,50.44
2024-03-27T00:43:25.351Z,50.10
2024-03-27T00:45:53.850Z,50.07
2024-03-27T00:48:22.832Z,49.99
2024-03-27T00:50:51.304Z,49.87
2024-03-27T00:53:19.849Z,49.68
2024-03-27T00:55:57.696Z,49.88
2024-03-27T00:58:26.420Z,49.67
2024-03-27T01:00:54.957Z,49.41
2024-03-27T01:03:25.604Z,49.27
2024-03-27T01:05:54.782Z,49.31
2024-03-27T01:08:23.275Z,49.39
2024-03-27T01:10:53.502Z,49.30
2024-03-27T01:13:22.004Z,48.73
2024-03-27T01:15:51.617Z,48.54
2024-03-27T01:18:20.418Z,48.36
2024-03-27T01:20:48.935Z,48.13
2024-03-27T01:23:17.419Z,48.00
2024-03-27T01:25:45.908Z,48.00
2024-03-27T01:28:14.434Z,47.92
2024-03-27T01:30:43.671Z,47.93
2024-03-27T01:33:12.491Z,47.89
2024-03-27T01:35:46.492Z,47.72
2024-03-27T01:38:15.089Z,47.88
2024-03-27T01:40:43.557Z,47.85
2024-03-27T01:43:12.025Z,47.79
2024-03-27T01:45:40.681Z,47.99
2024-03-27T01:48:09.698Z,47.82
2024-03-27T01:50:38.559Z,47.87
2024-03-27T01:53:10.717Z,47.79
2024-03-27T01:55:39.789Z,47.58
2024-03-27T01:58:08.682Z,47.63
2024-03-27T02:00:37.938Z,47.76
2024-03-27T02:03:07.281Z,47.60
2024-03-27T02:05:36.829Z,47.53
2024-03-27T02:08:05.682Z,47.41
2024-03-27T02:10:34.289Z,47.31
2024-03-27T02:13:03.053Z,47.27
2024-03-27T02:15:31.601Z,47.23
2024-03-27T02:18:00.182Z,47.28
2024-03-27T02:20:28.929Z,47.04
2024-03-27T02:23:04.595Z,46.89
2024-03-27T02:26:09.661Z,46.69
2024-03-27T02:28:38.522Z,46.57
2024-03-27T02:31:07.008Z,46.42
2024-03-27T02:33:35.500Z,46.38
2024-03-27T02:36:04.542Z,46.32
2024-03-27T02:38:33.051Z,46.31
2024-03-27T02:41:01.528Z,46.36
2024-03-27T02:43:30.487Z,46.39
2024-03-27T02:45:58.996Z,46.36
2024-03-27T02:48:27.892Z,46.32
2024-03-27T02:50:56.542Z,46.37
2024-03-27T02:53:25.037Z,46.27
2024-03-27T02:55:54.618Z,46.28
2024-03-27T02:58:23.123Z,46.21
2024-03-27T03:00:54.878Z,46.26
2024-03-27T03:03:23.878Z,46.36
2024-03-27T03:05:52.369Z,46.37
2024-03-27T03:08:20.854Z,46.41
2024-03-27T03:10:53.809Z,46.32
2024-03-27T03:13:22.303Z,46.53
2024-03-27T03:15:50.829Z,46.55
2024-03-27T03:18:19.292Z,46.67
2024-03-27T03:20:47.791Z,46.58
2024-03-27T03:23:16.890Z,46.48
2024-03-27T03:25:45.359Z,46.56
2024-03-27T03:28:13.810Z,46.75
2024-03-27T03:30:42.273Z,46.84
2024-03-27T03:33:11.523Z,46.92
2024-03-27T03:35:40.125Z,46.86
2024-03-27T03:38:08.670Z,46.83
2024-03-27T03:41:04.552Z,46.90
2024-03-27T03:43:33.163Z,47.00
2024-03-27T03:46:01.682Z,47.08
2024-03-27T03:48:30.313Z,47.17
2024-03-27T03:50:58.994Z,47.15
2024-03-27T03:53:27.484Z,47.03
2024-03-27T03:55:55.942Z,47.02
2024-03-27T03:58:24.409Z,46.80
2024-03-27T04:00:55.479Z,46.70
2024-03-27T04:03:24.017Z,46.78
2024-03-27T04:05:52.519Z,46.71
2024-03-27T04:08:22.959Z,46.82
2024-03-27T04:10:51.474Z,46.66
2024-03-27T04:13:20.019Z,46.51
2024-03-27T04:15:48.739Z,46.67
2024-03-27T04:18:17.245Z,46.85
2024-03-27T04:20:45.709Z,46.96
2024-03-27T04:23:14.259Z,47.01
2024-03-27T04:26:03.374Z,47.41
2024-03-27T04:28:34.999Z,47.42
2024-03-27T04:31:07.789Z,47.02
2024-03-27T04:33:36.779Z,47.02
2024-03-27T04:36:06.336Z,47.08
2024-03-27T04:38:34.872Z,46.87
2024-03-27T04:41:10.099Z,46.62
2024-03-27T04:43:41.603Z,46.50
2024-03-27T04:46:11.126Z,46.48
2024-03-27T04:48:39.643Z,46.53
2024-03-27T04:51:08.122Z,46.46
2024-03-27T04:53:36.621Z,46.57
2024-03-27T04:56:05.468Z,46.70
2024-03-27T04:58:33.917Z,46.64
2024-03-27T05:01:02.416Z,46.64
2024-03-27T05:03:30.870Z,46.62
2024-03-27T05:05:59.524Z,46.71
2024-03-27T05:08:28.053Z,46.78
2024-03-27T05:10:56.541Z,46.71
2024-03-27T05:13:24.992Z,46.61
2024-03-27T05:15:53.449Z,46.46
2024-03-27T05:18:21.937Z,46.43
2024-03-27T05:20:50.439Z,46.39
2024-03-27T05:23:19.093Z,46.15
2024-03-27T05:25:47.566Z,46.07
2024-03-27T05:28:16.049Z,45.88
2024-03-27T05:30:44.519Z,45.59
2024-03-27T05:33:13.029Z,45.07
2024-03-27T05:35:41.511Z,44.61
2024-03-27T05:38:10.546Z,44.10
2024-03-27T05:40:39.011Z,43.80
2024-03-27T05:43:08.826Z,43.39
2024-03-27T05:45:37.356Z,43.30
2024-03-27T05:48:06.345Z,42.90
2024-03-27T05:50:34.823Z,42.70
2024-03-27T05:53:04.162Z,42.08
2024-03-27T05:55:32.632Z,41.47
2024-03-27T05:58:01.117Z,40.64
2024-03-27T06:00:29.675Z,39.96
2024-03-27T06:02:58.217Z,39.84
2024-03-27T06:05:26.711Z,39.66
2024-03-27T06:07:55.303Z,39.48
2024-03-27T06:10:23.868Z,39.17
2024-03-27T06:12:52.331Z,38.94
2024-03-27T06:15:22.759Z,38.73
2024-03-27T06:17:52.483Z,38.42
2024-03-27T06:20:20.973Z,38.63
2024-03-27T06:22:51.634Z,38.96
2024-03-27T06:25:20.343Z,39.08
2024-03-27T06:27:48.862Z,39.25
2024-03-27T06:30:17.349Z,39.35
2024-03-27T06:32:45.828Z,38.92
2024-03-27T06:35:14.431Z,39.23
2024-03-27T06:37:42.922Z,39.53
2024-03-27T06:40:11.690Z,39.67
2024-03-27T06:42:41.081Z,39.81
2024-03-27T06:45:17.105Z,39.60
2024-03-27T06:47:50.038Z,39.70
2024-03-27T06:50:18.627Z,39.75
2024-03-27T06:52:47.881Z,39.80
2024-03-27T06:55:16.442Z,39.97
2024-03-27T06:57:44.922Z,40.12
2024-03-27T07:00:14.115Z,40.03
2024-03-27T07:02:43.119Z,40.25
2024-03-27T07:05:11.739Z,40.44
2024-03-27T07:07:40.272Z,40.46
2024-03-27T07:10:11.970Z,40.66
2024-03-27T07:12:40.525Z,40.82
2024-03-27T07:15:09.700Z,41.00
2024-03-27T07:17:38.256Z,41.38
2024-03-27T07:20:07.268Z,41.07
2024-03-27T07:22:35.831Z,41.18
2024-03-27T07:25:04.576Z,41.15
2024-03-27T07:27:34.504Z,41.31
2024-03-27T07:30:03.032Z,41.00
2024-03-27T07:32:31.639Z,41.00
2024-03-27T07:35:02.172Z,41.17
2024-03-27T07:37:30.866Z,40.90
2024-03-27T07:39:59.391Z,40.99
2024-03-27T07:42:27.882Z,40.93
2024-03-27T07:44:56.363Z,40.94
2024-03-27T07:47:24.908Z,41.09
2024-03-27T07:49:53.776Z,41.31
2024-03-27T07:52:22.297Z,41.25
2024-03-27T07:54:50.898Z,40.85
2024-03-27T07:57:19.400Z,40.80
2024-03-27T07:59:48.018Z,40.84
2024-03-27T08:02:16.605Z,40.62
2024-03-27T08:04:45.085Z,40.45
2024-03-27T08:07:13.570Z,40.71
2024-03-27T08:09:42.973Z,40.49
2024-03-27T08:12:11.671Z,40.42
2024-03-27T08:14:40.171Z,39.26
2024-03-27T08:17:08.730Z,36.78
2024-03-27T08:19:41.213Z,34.75
2024-03-27T08:22:11.007Z,33.65
2024-03-27T08:24:39.534Z,31.88
2024-03-27T08:27:08.085Z,30.46
2024-03-27T08:29:36.591Z,29.82
2024-03-27T08:32:07.898Z,28.49
2024-03-27T08:34:38.760Z,27.81
2024-03-27T08:37:07.274Z,26.63
2024-03-27T08:39:35.850Z,25.83
2024-03-27T08:42:04.434Z,24.70
2024-03-27T08:44:33.031Z,24.24
2024-03-27T08:47:01.592Z,23.87
2024-03-27T08:49:30.213Z,23.32
2024-03-27T08:51:58.735Z,23.21
2024-03-27T08:54:27.340Z,22.70
2024-03-27T08:56:55.867Z,22.39
2024-03-27T08:59:24.417Z,21.95
2024-03-27T09:01:53.006Z,21.51
2024-03-27T09:04:21.571Z,20.95
2024-03-27T09:06:50.087Z,20.71
2024-03-27T09:09:19.169Z,20.42
2024-03-27T09:11:47.677Z,20.48
2024-03-27T09:14:16.222Z,20.41
2024-03-27T09:16:44.772Z,20.13
2024-03-27T09:19:15.155Z,20.42
2024-03-27T09:21:43.642Z,20.42
2024-03-27T09:24:12.120Z,20.40
2024-03-27T09:26:40.595Z,19.90
2024-03-27T09:29:09.095Z,19.44
2024-03-27T09:31:38.176Z,19.55
2024-03-27T09:34:06.788Z,19.02
2024-03-27T09:36:35.308Z,19.10
2024-03-27T09:39:04.240Z,19.24
2024-03-27T09:41:32.730Z,19.11
2024-03-27T09:44:01.692Z,18.73
2024-03-27T09:46:30.213Z,18.28
2024-03-27T09:48:59.715Z,17.73
2024-03-27T09:51:30.960Z,17.14
2024-03-27T09:54:00.170Z,17.01
2024-03-27T09:56:28.716Z,17.15
2024-03-27T09:58:58.186Z,17.02
2024-03-27T10:01:38.077Z,17.47
2024-03-27T10:04:11.258Z,17.81
2024-03-27T10:06:40.365Z,17.53
2024-03-27T10:09:11.722Z,16.99
2024-03-27T10:11:41.470Z,16.09
2024-03-27T10:14:10.173Z,16.30
2024-03-27T10:16:38.747Z,16.15
2024-03-27T10:19:07.563Z,15.83
2024-03-27T10:21:36.160Z,15.98
2024-03-27T10:24:04.855Z,16.16
2024-03-27T10:26:33.393Z,16.14
2024-03-27T10:29:02.665Z,16.18
2024-03-27T10:31:31.194Z,16.31
2024-03-27T10:33:59.702Z,16.02
2024-03-27T10:36:28.403Z,15.69
2024-03-27T10:39:00.703Z,15.68
2024-03-27T10:41:29.656Z,15.70
2024-03-27T10:43:59.718Z,16.00
2024-03-27T10:46:29.748Z,15.61
2024-03-27T10:48:58.288Z,15.62
2024-03-27T10:51:27.801Z,15.37
2024-03-27T10:53:57.487Z,15.24
2024-03-27T10:56:26.136Z,15.41
2024-03-27T10:58:55.475Z,15.64
2024-03-27T11:01:25.627Z,15.93
2024-03-27T11:03:54.527Z,15.94
2024-03-27T11:06:23.164Z,15.39
2024-03-27T11:08:51.630Z,15.24
2024-03-27T11:11:22.170Z,15.21
2024-03-27T11:13:51.955Z,15.41
2024-03-27T11:16:23.959Z,15.17
2024-03-27T11:18:54.598Z,15.30
2024-03-27T11:21:28.219Z,15.31
2024-03-27T11:24:02.841Z,15.25
2024-03-27T11:26:31.783Z,15.14
2024-03-27T11:29:00.401Z,15.46
2024-03-27T11:31:29.520Z,15.56
2024-03-27T11:33:58.208Z,15.43
2024-03-27T11:36:26.917Z,15.38
2024-03-27T11:38:55.512Z,15.63
2024-03-27T11:41:26.243Z,16.07
2024-03-27T11:43:54.739Z,15.84
2024-03-27T11:46:23.501Z,16.54
2024-03-27T11:48:52.161Z,16.70
2024-03-27T11:51:21.861Z,16.94
2024-03-27T11:53:50.695Z,17.64
2024-03-27T11:56:19.551Z,17.85
2024-03-27T11:58:48.095Z,17.69
2024-03-27T12:01:17.671Z,17.96
2024-03-27T12:03:46.604Z,18.32
2024-03-27T12:06:15.339Z,18.94
2024-03-27T12:08:44.078Z,19.30
2024-03-27T12:11:12.861Z,19.01
2024-03-27T12:13:41.838Z,18.65
2024-03-27T12:16:11.889Z,18.31
2024-03-27T12:18:41.303Z,19.42
2024-03-27T12:21:17.431Z,20.43
2024-03-27T12:23:46.374Z,21.16
2024-03-27T12:26:21.655Z,22.33
2024-03-27T12:28:53.879Z,23.37
2024-03-27T12:31:31.911Z,24.31
2024-03-27T12:34:00.530Z,24.22
2024-03-27T12:36:31.042Z,24.48
2024-03-27T12:38:59.696Z,25.16
2024-03-27T12:41:28.414Z,25.65
2024-03-27T12:43:57.015Z,26.00
2024-03-27T12:46:25.709Z,26.71
2024-03-27T12:48:54.342Z,26.05
2024-03-27T12:51:22.894Z,26.34
2024-03-27T12:53:51.472Z,26.76
2024-03-27T12:56:20.003Z,26.68
2024-03-27T12:58:48.565Z,26.91
2024-03-27T13:01:17.281Z,27.06
2024-03-27T13:03:45.970Z,27.52
2024-03-27T13:06:14.633Z,28.23
2024-03-27T13:08:43.181Z,28.68
2024-03-27T13:11:11.959Z,29.12
2024-03-27T13:13:40.570Z,29.52
2024-03-27T13:16:09.176Z,29.90
2024-03-27T13:18:37.787Z,30.22
2024-03-27T13:21:09.697Z,30.49
2024-03-27T13:23:38.658Z,30.84
2024-03-27T13:26:09.266Z,31.01
2024-03-27T13:28:37.808Z,31.10
2024-03-27T13:31:06.609Z,31.28
2024-03-27T13:33:35.384Z,31.60
2024-03-27T13:36:04.298Z,31.99
2024-03-27T13:38:32.974Z,32.31
2024-03-27T13:41:01.957Z,32.79
2024-03-27T13:43:30.769Z,33.27
2024-03-27T13:45:59.355Z,33.61
2024-03-27T13:48:29.884Z,33.98
2024-03-27T13:50:58.465Z,34.23
2024-03-27T13:53:27.007Z,34.51
2024-03-27T13:55:55.667Z,34.61
2024-03-27T13:58:24.242Z,34.75
2024-03-27T14:00:52.744Z,34.77
2024-03-27T14:03:21.339Z,34.62
2024-03-27T14:05:50.060Z,34.90
2024-03-27T14:08:18.619Z,34.96
2024-03-27T14:10:47.485Z,35.17
2024-03-27T14:13:16.086Z,35.51
2024-03-27T14:15:45.072Z,35.89
2024-03-27T14:18:13.754Z,36.04
2024-03-27T14:20:43.278Z,36.24
2024-03-27T14:23:11.893Z,36.27
2024-03-27T14:25:40.552Z,36.44
2024-03-27T14:28:09.390Z,36.42
2024-03-27T14:30:38.039Z,36.63
2024-03-27T14:33:07.178Z,36.93
2024-03-27T14:35:36.008Z,37.14
2024-03-27T14:38:05.784Z,37.12
2024-03-27T14:40:34.332Z,37.41
2024-03-27T14:43:02.965Z,37.56
2024-03-27T14:45:31.617Z,37.81
2024-03-27T14:48:00.330Z,37.88
2024-03-27T14:50:28.905Z,37.80
2024-03-27T14:52:58.597Z,37.94
2024-03-27T14:55:27.177Z,38.10
2024-03-27T14:57:56.047Z,38.23
2024-03-27T15:00:25.536Z,38.35
2024-03-27T15:02:54.105Z,38.34
2024-03-27T15:05:22.988Z,38.29
2024-03-27T15:07:51.517Z,38.37
2024-03-27T15:10:20.528Z,38.44
2024-03-27T15:12:49.123Z,38.72
2024-03-27T15:15:17.679Z,38.59
2024-03-27T15:17:46.194Z,38.77
2024-03-27T15:20:14.880Z,38.70
2024-03-27T15:22:43.459Z,38.60
2024-03-27T15:25:12.028Z,38.59
2024-03-27T15:27:40.605Z,38.86
2024-03-27T15:30:09.393Z,38.85
2024-03-27T15:32:38.123Z,38.99
2024-03-27T15:35:06.905Z,39.06
2024-03-27T15:37:35.809Z,39.04
2024-03-27T15:40:05.213Z,39.23
2024-03-27T15:42:33.973Z,39.23
2024-03-27T15:45:02.605Z,39.44
2024-03-27T15:47:31.353Z,39.78
2024-03-27T15:50:01.475Z,39.89
2024-03-27T15:52:30.159Z,39.89
2024-03-27T15:54:58.733Z,40.33
2024-03-27T15:57:27.399Z,40.44
2024-03-27T15:59:56.012Z,40.66
2024-03-27T16:02:24.649Z,40.62
2024-03-27T16:04:53.701Z,40.64
2024-03-27T16:07:22.433Z,40.81
2024-03-27T16:09:51.128Z,40.84
2024-03-27T16:12:19.709Z,41.16
2024-03-27T16:14:48.321Z,41.11
2024-03-27T16:17:17.167Z,41.27
2024-03-27T16:19:47.160Z,41.44
2024-03-27T16:22:15.777Z,41.47
2024-03-27T16:24:44.384Z,41.56
2024-03-27T16:27:13.010Z,41.51
2024-03-27T16:29:41.635Z,41.58
2024-03-27T16:32:10.790Z,41.78
2024-03-27T16:34:39.503Z,41.72
2024-03-27T16:37:07.983Z,41.80
2024-03-27T16:39:36.560Z,41.85
2024-03-27T16:42:05.146Z,41.87
2024-03-27T16:44:35.761Z,41.97
2024-03-27T16:47:04.802Z,42.28
2024-03-27T16:49:33.281Z,42.18
2024-03-27T16:52:01.848Z,42.40
2024-03-27T16:54:30.352Z,42.41
2024-03-27T16:57:00.643Z,42.59
2024-03-27T16:59:29.722Z,42.81
2024-03-27T17:01:58.193Z,42.86
2024-03-27T17:04:26.937Z,43.12
2024-03-27T17:06:55.440Z,43.09
2024-03-27T17:09:23.951Z,43.35
2024-03-27T17:11:52.433Z,43.66
2024-03-27T17:14:20.920Z,43.80
2024-03-27T17:16:49.462Z,44.06
2024-03-27T17:19:17.957Z,44.16
2024-03-27T17:21:46.449Z,44.42
2024-03-27T17:24:14.911Z,44.56
2024-03-27T17:26:43.392Z,44.85
2024-03-27T17:29:11.866Z,44.97
2024-03-27T17:31:40.339Z,45.06
2024-03-27T17:34:08.858Z,45.58
2024-03-27T17:36:37.350Z,45.56
2024-03-27T17:39:05.921Z,45.72
2024-03-27T17:41:34.435Z,45.86
2024-03-27T17:44:03.411Z,46.06
2024-03-27T17:46:31.924Z,46.10
2024-03-27T17:49:00.454Z,46.26
2024-03-27T17:51:28.992Z,46.50
2024-03-27T17:53:58.046Z,46.64
2024-03-27T17:56:26.533Z,46.59
2024-03-27T17:58:55.832Z,46.68
2024-03-27T18:01:25.216Z,46.68
2024-03-27T18:03:53.693Z,46.72
2024-03-27T18:06:24.484Z,46.81
2024-03-27T18:08:53.045Z,47.06
2024-03-27T18:11:21.536Z,47.03
2024-03-27T18:13:50.659Z,47.24
2024-03-27T18:16:19.728Z,47.37
2024-03-27T18:18:48.254Z,47.48
2024-03-27T18:21:16.774Z,47.55
2024-03-27T18:23:45.276Z,47.60
2024-03-27T18:26:13.871Z,47.66
2024-03-27T18:28:42.379Z,47.67
2024-03-27T18:31:10.868Z,47.71
2024-03-27T18:33:39.354Z,47.76
2024-03-27T18:36:08.025Z,47.82
2024-03-27T18:38:36.529Z,47.81
2024-03-27T18:41:05.188Z,47.95
2024-03-27T18:43:33.711Z,47.92
2024-03-27T18:46:02.268Z,47.99
2024-03-27T18:48:30.770Z,47.93
2024-03-27T18:50:59.246Z,48.07
2024-03-27T18:53:27.734Z,48.16
2024-03-27T18:55:58.948Z,48.21
2024-03-27T18:58:27.787Z,48.32
2024-03-27T19:00:59.001Z,48.43
2024-03-27T19:03:27.525Z,48.49
2024-03-27T19:05:56.054Z,48.69
2024-03-27T19:08:24.657Z,48.74
2024-03-27T19:10:53.150Z,48.73
2024-03-27T19:13:22.624Z,48.69
2024-03-27T19:15:51.434Z,48.89
2024-03-27T19:18:19.974Z,48.93
2024-03-27T19:20:48.940Z,49.12
2024-03-27T19:23:17.429Z,49.24
2024-03-27T19:25:55.698Z,49.35
2024-03-27T19:28:24.298Z,49.39
2024-03-27T19:30:53.006Z,49.61
2024-03-27T19:33:25.560Z,49.68
2024-03-27T19:35:54.014Z,49.73
2024-03-27T19:38:25.401Z,49.83
2024-03-27T19:40:58.363Z,49.91
2024-03-27T19:43:26.825Z,50.05
2024-03-27T19:45:55.676Z,50.11
2024-03-27T19:48:24.128Z,50.25
2024-03-27T19:50:52.621Z,50.39
2024-03-27T19:53:24.550Z,50.56
2024-03-27T19:55:53.008Z,50.79
2024-03-27T19:58:21.536Z,50.89
2024-03-27T20:00:50.221Z,51.06
2024-03-27T20:03:18.767Z,51.14
2024-03-27T20:05:47.331Z,51.23
2024-03-27T20:08:16.585Z,51.27
2024-03-27T20:10:45.511Z,51.25
2024-03-27T20:13:14.327Z,51.32
2024-03-27T20:15:42.812Z,51.48
2024-03-27T20:18:11.297Z,51.48
2024-03-27T20:20:39.929Z,51.64
2024-03-27T20:23:08.627Z,51.64
2024-03-27T20:25:37.658Z,51.72
2024-03-27T20:28:07.815Z,51.80
2024-03-27T20:30:37.260Z,51.92
2024-03-27T20:33:06.676Z,52.06
2024-03-27T20:35:35.147Z,52.03
2024-03-27T20:38:03.694Z,52.08
2024-03-27T20:40:32.699Z,52.08
2024-03-27T20:43:01.565Z,52.18
2024-03-27T20:45:30.026Z,52.29
2024-03-27T20:47:58.499Z,52.29
2024-03-27T20:50:27.022Z,52.47
2024-03-27T20:52:55.531Z,52.56
2024-03-27T20:55:24.217Z,52.62
2024-03-27T20:57:52.705Z,52.79
2024-03-27T21:00:21.399Z,52.85
2024-03-27T21:02:49.865Z,52.88
2024-03-27T21:05:18.618Z,52.92
2024-03-27T21:07:47.147Z,52.98
2024-03-27T21:10:17.343Z,53.05
2024-03-27T21:12:46.845Z,53.13
2024-03-27T21:15:15.314Z,53.17
2024-03-27T21:17:43.822Z,53.27
2024-03-27T21:20:13.474Z,53.29
2024-03-27T21:22:41.971Z,53.35
2024-03-27T21:25:10.548Z,53.43
2024-03-27T21:27:40.252Z,53.41
2024-03-27T21:30:09.158Z,53.44
2024-03-27T21:32:37.615Z,53.51
2024-03-27T21:35:06.949Z,53.57
2024-03-27T21:37:35.467Z,53.58
2024-03-27T21:40:04.194Z,53.57
2024-03-27T21:42:33.219Z,53.69
2024-03-27T21:45:01.735Z,53.85
2024-03-27T21:47:30.425Z,53.86
2024-03-27T21:50:00.625Z,53.93
2024-03-27T21:52:29.587Z,53.98
2024-03-27T21:54:58.074Z,53.89
2024-03-27T21:57:26.547Z,54.03
2024-03-27T21:59:55.007Z,53.95
2024-03-27T22:02:23.472Z,53.98
2024-03-27T22:04:51.953Z,54.03
2024-03-27T22:07:20.453Z,54.04
2024-03-27T22:09:50.400Z,54.05
2024-03-27T22:12:19.931Z,54.10
2024-03-27T22:14:48.412Z,54.11
2024-03-27T22:17:16.895Z,54.15
2024-03-27T22:19:45.581Z,54.20
2024-03-27T22:22:14.293Z,54.16
2024-03-27T22:24:42.948Z,54.27
2024-03-27T22:27:11.434Z,54.34
2024-03-27T22:29:39.910Z,54.36
2024-03-27T22:32:08.994Z,54.43
2024-03-27T22:34:37.495Z,54.54
2024-03-27T22:37:05.962Z,54.59
2024-03-27T22:39:34.434Z,54.59
2024-03-27T22:42:03.594Z,54.69
2024-03-27T22:44:32.055Z,54.75
2024-03-27T22:47:00.682Z,54.78
2024-03-27T22:49:29.147Z,54.80
2024-03-27T22:51:57.619Z,54.88
2024-03-27T22:54:26.110Z,54.85
2024-03-27T22:56:54.592Z,54.94
2024-03-27T22:59:23.079Z,55.05
2024-03-27T23:01:51.838Z,55.09
2024-03-27T23:04:20.335Z,55.14
2024-03-27T23:06:48.958Z,55.19
2024-03-27T23:09:17.521Z,55.23
2024-03-27T23:11:45.998Z,55.31
2024-03-27T23:14:14.657Z,55.36
2024-03-27T23:16:43.139Z,55.53
2024-03-27T23:19:11.614Z,55.58
2024-03-27T23:21:40.130Z,55.70
2024-03-27T23:24:08.765Z,55.81
2024-03-27T23:26:37.247Z,55.86
2024-03-27T23:29:06.449Z,55.90
2024-03-27T23:31:34.937Z,56.00
2024-03-27T23:34:03.407Z,56.07
2024-03-27T23:36:31.919Z,56.22
2024-03-27T23:39:00.445Z,56.34
2024-03-27T23:41:28.982Z,56.32
2024-03-27T23:43:57.498Z,56.46
2024-03-27T23:46:26.009Z,56.46
2024-03-27T23:48:54.488Z,56.48
2024-03-27T23:51:23.763Z,56.57
2024-03-27T23:53:52.254Z,56.73
2024-03-27T23:56:20.731Z,56.64
2024-03-27T23:58:49.349Z,56.79
